sensor_id;sensor_type;location;lat;lon;timestamp;pressure;altitude;pressure_sealevel;temperature;humidity
68169;BME280;54981;50.206;15.978;2023-08-30T00:01:28;97915.66;;;14.53;100.00
68169;BME280;54981;50.206;15.978;2023-08-30T00:03:58;97919.84;;;14.46;100.00
68169;BME280;54981;50.206;15.978;2023-08-30T00:06:28;97915.34;;;14.46;100.00
68169;BME280;54981;50.206;15.978;2023-08-30T00:08:59;97912.22;;;14.41;100.00
68169;BME280;54981;50.206;15.978;2023-08-30T00:11:29;97922.78;;;14.43;100.00
68169;BME280;54981;50.206;15.978;2023-08-30T00:14:05;97924.56;;;14.33;100.00
68169;BME280;54981;50.206;15.978;2023-08-30T00:16:36;97923.78;;;14.42;100.00
68169;BME280;54981;50.206;15.978;2023-08-30T00:19:08;97920.78;;;14.35;100.00
68169;BME280;54981;50.206;15.978;2023-08-30T00:21:38;97928.72;;;14.46;100.00
68169;BME280;54981;50.206;15.978;2023-08-30T00:24:09;97928.59;;;14.48;100.00
68169;BME280;54981;50.206;15.978;2023-08-30T00:26:40;97932.31;;;14.57;100.00
68169;BME280;54981;50.206;15.978;2023-08-30T00:29:10;97924.00;;;14.60;100.00
68169;BME280;54981;50.206;15.978;2023-08-30T00:31:40;97928.28;;;14.62;100.00
68169;BME280;54981;50.206;15.978;2023-08-30T00:34:11;97930.25;;;14.60;100.00
68169;BME280;54981;50.206;15.978;2023-08-30T00:36:42;97930.97;;;14.62;100.00
68169;BME280;54981;50.206;15.978;2023-08-30T00:39:12;97933.19;;;14.67;100.00
68169;BME280;54981;50.206;15.978;2023-08-30T00:41:43;97934.75;;;14.69;100.00
68169;BME280;54981;50.206;15.978;2023-08-30T00:44:13;97936.47;;;14.70;100.00
68169;BME280;54981;50.206;15.978;2023-08-30T00:46:44;97937.44;;;14.69;100.00
68169;BME280;54981;50.206;15.978;2023-08-30T00:49:14;97927.44;;;14.72;100.00
68169;BME280;54981;50.206;15.978;2023-08-30T00:51:45;97925.88;;;14.69;100.00
68169;BME280;54981;50.206;15.978;2023-08-30T00:54:15;97919.97;;;14.65;100.00
68169;BME280;54981;50.206;15.978;2023-08-30T00:56:47;97925.88;;;14.69;100.00
68169;BME280;54981;50.206;15.978;2023-08-30T00:59:17;97919.38;;;14.62;100.00
68169;BME280;54981;50.206;15.978;2023-08-30T01:01:48;97909.06;;;14.57;100.00
68169;BME280;54981;50.206;15.978;2023-08-30T01:04:19;97910.28;;;14.53;100.00
68169;BME280;54981;50.206;15.978;2023-08-30T01:06:50;97922.72;;;14.54;100.00
68169;BME280;54981;50.206;15.978;2023-08-30T01:09:21;97918.25;;;14.64;100.00
68169;BME280;54981;50.206;15.978;2023-08-30T01:17:13;97906.53;;;14.56;100.00
68169;BME280;54981;50.206;15.978;2023-08-30T01:28:29;97912.72;;;14.35;100.00
68169;BME280;54981;50.206;15.978;2023-08-30T01:31:00;97919.47;;;14.30;100.00
68169;BME280;54981;50.206;15.978;2023-08-30T01:33:32;97921.03;;;14.32;100.00
68169;BME280;54981;50.206;15.978;2023-08-30T01:36:04;97918.94;;;14.36;100.00
68169;BME280;54981;50.206;15.978;2023-08-30T01:38:36;97925.56;;;14.32;100.00
68169;BME280;54981;50.206;15.978;2023-08-30T01:41:07;97927.25;;;14.33;100.00
68169;BME280;54981;50.206;15.978;2023-08-30T01:43:38;97930.13;;;14.41;100.00
68169;BME280;54981;50.206;15.978;2023-08-30T01:46:10;97922.22;;;14.39;100.00
68169;BME280;54981;50.206;15.978;2023-08-30T01:48:41;97920.97;;;14.43;100.00
68169;BME280;54981;50.206;15.978;2023-08-30T01:51:13;97924.09;;;14.48;100.00
68169;BME280;54981;50.206;15.978;2023-08-30T01:53:44;97926.59;;;14.50;100.00
68169;BME280;54981;50.206;15.978;2023-08-30T01:56:16;97915.78;;;14.52;100.00
68169;BME280;54981;50.206;15.978;2023-08-30T01:58:46;97919.28;;;14.52;100.00
68169;BME280;54981;50.206;15.978;2023-08-30T02:01:17;97925.50;;;14.53;100.00
68169;BME280;54981;50.206;15.978;2023-08-30T02:03:47;97924.16;;;14.58;100.00
68169;BME280;54981;50.206;15.978;2023-08-30T02:06:24;97919.78;;;14.57;100.00
68169;BME280;54981;50.206;15.978;2023-08-30T02:09:21;97918.94;;;14.36;100.00
68169;BME280;54981;50.206;15.978;2023-08-30T02:11:53;97920.53;;;14.38;100.00
68169;BME280;54981;50.206;15.978;2023-08-30T02:14:26;97916.19;;;14.47;100.00
68169;BME280;54981;50.206;15.978;2023-08-30T02:16:57;97920.09;;;14.43;100.00
68169;BME280;54981;50.206;15.978;2023-08-30T02:19:27;97912.06;;;14.43;100.00
68169;BME280;54981;50.206;15.978;2023-08-30T02:21:58;97918.56;;;14.50;100.00
68169;BME280;54981;50.206;15.978;2023-08-30T02:24:29;97917.38;;;14.54;100.00
68169;BME280;54981;50.206;15.978;2023-08-30T02:26:59;97918.66;;;14.60;100.00
68169;BME280;54981;50.206;15.978;2023-08-30T02:29:30;97930.25;;;14.60;100.00
68169;BME280;54981;50.206;15.978;2023-08-30T02:32:00;97927.00;;;14.66;100.00
68169;BME280;54981;50.206;15.978;2023-08-30T02:34:31;97933.78;;;14.70;100.00
68169;BME280;54981;50.206;15.978;2023-08-30T02:37:01;97922.34;;;14.68;100.00
68169;BME280;54981;50.206;15.978;2023-08-30T02:39:32;97923.34;;;14.67;100.00
68169;BME280;54981;50.206;15.978;2023-08-30T02:42:02;97914.59;;;14.65;100.00
68169;BME280;54981;50.206;15.978;2023-08-30T02:44:33;97921.91;;;14.63;100.00
68169;BME280;54981;50.206;15.978;2023-08-30T02:47:03;97920.94;;;14.64;100.00
68169;BME280;54981;50.206;15.978;2023-08-30T02:49:34;97918.53;;;14.61;100.00
68169;BME280;54981;50.206;15.978;2023-08-30T02:52:04;97921.19;;;14.61;100.00
68169;BME280;54981;50.206;15.978;2023-08-30T02:54:35;97927.28;;;14.63;100.00
68169;BME280;54981;50.206;15.978;2023-08-30T02:57:05;97923.19;;;14.69;100.00
68169;BME280;54981;50.206;15.978;2023-08-30T02:59:35;97918.97;;;14.66;100.00
68169;BME280;54981;50.206;15.978;2023-08-30T03:02:06;97918.53;;;14.61;100.00
68169;BME280;54981;50.206;15.978;2023-08-30T03:04:36;97911.59;;;14.59;100.00
68169;BME280;54981;50.206;15.978;2023-08-30T03:07:08;97909.06;;;14.57;100.00
68169;BME280;54981;50.206;15.978;2023-08-30T03:09:39;97903.69;;;14.57;100.00
68169;BME280;54981;50.206;15.978;2023-08-30T03:12:09;97901.59;;;14.61;100.00
68169;BME280;54981;50.206;15.978;2023-08-30T03:14:39;97906.84;;;14.62;100.00
68169;BME280;54981;50.206;15.978;2023-08-30T03:17:10;97894.13;;;14.64;100.00
68169;BME280;54981;50.206;15.978;2023-08-30T03:19:40;97900.78;;;14.60;100.00
68169;BME280;54981;50.206;15.978;2023-08-30T03:22:10;97900.38;;;14.44;100.00
68169;BME280;54981;50.206;15.978;2023-08-30T03:24:41;97900.91;;;14.38;100.00
68169;BME280;54981;50.206;15.978;2023-08-30T03:27:11;97901.47;;;14.32;100.00
68169;BME280;54981;50.206;15.978;2023-08-30T03:29:41;97899.53;;;14.43;100.00
68169;BME280;54981;50.206;15.978;2023-08-30T03:32:16;97905.19;;;14.50;100.00
68169;BME280;54981;50.206;15.978;2023-08-30T03:34:48;97899.75;;;14.31;100.00
68169;BME280;54981;50.206;15.978;2023-08-30T03:37:18;97912.28;;;14.30;100.00
68169;BME280;54981;50.206;15.978;2023-08-30T03:39:48;97909.56;;;14.20;100.00
68169;BME280;54981;50.206;15.978;2023-08-30T03:42:19;97910.28;;;14.22;100.00
68169;BME280;54981;50.206;15.978;2023-08-30T03:44:49;97912.25;;;14.20;100.00
68169;BME280;54981;50.206;15.978;2023-08-30T03:47:19;97913.81;;;14.23;100.00
68169;BME280;54981;50.206;15.978;2023-08-30T03:49:50;97915.25;;;14.06;100.00
68169;BME280;54981;50.206;15.978;2023-08-30T03:52:20;97919.38;;;14.10;100.00
68169;BME280;54981;50.206;15.978;2023-08-30T03:54:50;97913.56;;;14.05;100.00
68169;BME280;54981;50.206;15.978;2023-08-30T03:57:21;97912.59;;;14.06;100.00
68169;BME280;54981;50.206;15.978;2023-08-30T03:59:51;97918.72;;;13.97;100.00
68169;BME280;54981;50.206;15.978;2023-08-30T04:02:22;97913.19;;;13.89;100.00
68169;BME280;54981;50.206;15.978;2023-08-30T04:04:53;97918.06;;;13.83;100.00
68169;BME280;54981;50.206;15.978;2023-08-30T04:07:23;97915.78;;;13.79;100.00
68169;BME280;54981;50.206;15.978;2023-08-30T04:09:53;97909.59;;;13.78;100.00
68169;BME280;54981;50.206;15.978;2023-08-30T04:12:24;97919.81;;;13.73;100.00
68169;BME280;54981;50.206;15.978;2023-08-30T04:14:54;97919.69;;;13.75;100.00
68169;BME280;54981;50.206;15.978;2023-08-30T04:17:25;97926.34;;;13.80;100.00
68169;BME280;54981;50.206;15.978;2023-08-30T04:19:55;97931.56;;;13.82;100.00
68169;BME280;54981;50.206;15.978;2023-08-30T04:22:25;97924.78;;;13.78;100.00
68169;BME280;54981;50.206;15.978;2023-08-30T04:24:56;97925.38;;;13.81;100.00
68169;BME280;54981;50.206;15.978;2023-08-30T04:27:26;97929.81;;;13.71;100.00
68169;BME280;54981;50.206;15.978;2023-08-30T04:29:56;97930.06;;;13.68;100.00
68169;BME280;54981;50.206;15.978;2023-08-30T04:32:27;97928.09;;;13.70;100.00
68169;BME280;54981;50.206;15.978;2023-08-30T04:34:57;97930.94;;;13.69;100.00
68169;BME280;54981;50.206;15.978;2023-08-30T04:37:30;97935.84;;;13.73;100.00
68169;BME280;54981;50.206;15.978;2023-08-30T04:40:01;97931.63;;;13.71;100.00
68169;BME280;54981;50.206;15.978;2023-08-30T04:42:33;97935.16;;;13.71;100.00
68169;BME280;54981;50.206;15.978;2023-08-30T04:45:04;97938.88;;;13.80;100.00
68169;BME280;54981;50.206;15.978;2023-08-30T04:47:34;97937.00;;;13.92;100.00
68169;BME280;54981;50.206;15.978;2023-08-30T04:50:05;97933.59;;;13.90;100.00
68169;BME280;54981;50.206;15.978;2023-08-30T04:52:36;97937.59;;;13.95;100.00
68169;BME280;54981;50.206;15.978;2023-08-30T04:55:06;97944.28;;;13.90;100.00
68169;BME280;54981;50.206;15.978;2023-08-30T04:57:37;97940.97;;;13.97;100.00
68169;BME280;54981;50.206;15.978;2023-08-30T05:00:08;97942.06;;;13.95;100.00
68169;BME280;54981;50.206;15.978;2023-08-30T05:02:38;97943.06;;;13.94;100.00
68169;BME280;54981;50.206;15.978;2023-08-30T05:05:09;97946.06;;;13.79;100.00
68169;BME280;54981;50.206;15.978;2023-08-30T05:07:39;97945.41;;;13.87;100.00
68169;BME280;54981;50.206;15.978;2023-08-30T05:10:09;97946.25;;;13.88;100.00
68169;BME280;54981;50.206;15.978;2023-08-30T05:12:40;97947.69;;;13.92;100.00
68169;BME280;54981;50.206;15.978;2023-08-30T05:15:12;97946.06;;;14.00;100.00
68169;BME280;54981;50.206;15.978;2023-08-30T05:17:42;97934.97;;;14.05;100.00
68169;BME280;54981;50.206;15.978;2023-08-30T05:20:13;97942.13;;;14.04;100.00
68169;BME280;54981;50.206;15.978;2023-08-30T05:22:43;97945.69;;;14.05;100.00
68169;BME280;54981;50.206;15.978;2023-08-30T05:25:14;97941.97;;;13.96;100.00
68169;BME280;54981;50.206;15.978;2023-08-30T05:27:44;97945.47;;;13.97;100.00
68169;BME280;54981;50.206;15.978;2023-08-30T05:30:14;97946.66;;;14.04;100.00
68169;BME280;54981;50.206;15.978;2023-08-30T05:32:45;97948.59;;;14.02;100.00
68169;BME280;54981;50.206;15.978;2023-08-30T05:35:15;97952.72;;;14.06;100.00
68169;BME280;54981;50.206;15.978;2023-08-30T05:37:46;97951.22;;;14.13;100.00
68169;BME280;54981;50.206;15.978;2023-08-30T05:40:16;97949.84;;;14.19;100.00
68169;BME280;54981;50.206;15.978;2023-08-30T05:42:48;97945.09;;;14.22;100.00
68169;BME280;54981;50.206;15.978;2023-08-30T05:45:18;97948.59;;;14.23;100.00
68169;BME280;54981;50.206;15.978;2023-08-30T05:47:48;97953.28;;;14.31;100.00
68169;BME280;54981;50.206;15.978;2023-08-30T05:50:19;97949.91;;;14.28;100.00
68169;BME280;54981;50.206;15.978;2023-08-30T05:52:49;97949.22;;;14.26;100.00
68169;BME280;54981;50.206;15.978;2023-08-30T05:55:21;97960.88;;;14.25;100.00
68169;BME280;54981;50.206;15.978;2023-08-30T05:57:52;97954.09;;;14.21;100.00
68169;BME280;54981;50.206;15.978;2023-08-30T06:00:22;97958.19;;;14.04;100.00
68169;BME280;54981;50.206;15.978;2023-08-30T06:02:53;97954.91;;;14.12;100.00
68169;BME280;54981;50.206;15.978;2023-08-30T06:05:23;97953.50;;;14.18;100.00
68169;BME280;54981;50.206;15.978;2023-08-30T06:07:53;97959.84;;;14.17;100.00
68169;BME280;54981;50.206;15.978;2023-08-30T06:10:24;97954.09;;;14.21;100.00
68169;BME280;54981;50.206;15.978;2023-08-30T06:12:54;97957.25;;;14.26;100.00
68169;BME280;54981;50.206;15.978;2023-08-30T06:15:25;97957.94;;;14.28;100.00
68169;BME280;54981;50.206;15.978;2023-08-30T06:17:56;97959.38;;;14.33;100.00
68169;BME280;54981;50.206;15.978;2023-08-30T06:20:27;97961.16;;;14.22;100.00
68169;BME280;54981;50.206;15.978;2023-08-30T06:22:58;97959.53;;;14.10;100.00
68169;BME280;54981;50.206;15.978;2023-08-30T06:25:29;97954.09;;;14.21;100.00
68169;BME280;54981;50.206;15.978;2023-08-30T06:27:59;97956.97;;;14.30;100.00
68169;BME280;54981;50.206;15.978;2023-08-30T06:30:31;97954.56;;;14.26;100.00
68169;BME280;54981;50.206;15.978;2023-08-30T06:33:02;97957.03;;;14.39;100.00
68169;BME280;54981;50.206;15.978;2023-08-30T06:35:36;97952.78;;;14.37;100.00
68169;BME280;54981;50.206;15.978;2023-08-30T06:38:06;97955.78;;;14.22;100.00
68169;BME280;54981;50.206;15.978;2023-08-30T06:40:43;97959.38;;;14.33;100.00
68169;BME280;54981;50.206;15.978;2023-08-30T06:43:13;97955.69;;;14.24;100.00
68169;BME280;54981;50.206;15.978;2023-08-30T06:45:47;97961.72;;;14.26;100.00
68169;BME280;54981;50.206;15.978;2023-08-30T06:48:20;97957.25;;;14.26;100.00
68169;BME280;54981;50.206;15.978;2023-08-30T06:50:50;97954.81;;;14.23;100.00
68169;BME280;54981;50.206;15.978;2023-08-30T06:53:20;97952.94;;;14.14;100.00
68169;BME280;54981;50.206;15.978;2023-08-30T06:55:58;97948.03;;;14.19;100.00
68169;BME280;54981;50.206;15.978;2023-08-30T06:58:29;97954.22;;;14.20;100.00
68169;BME280;54981;50.206;15.978;2023-08-30T07:01:00;97958.88;;;14.18;100.00
68169;BME280;54981;50.206;15.978;2023-08-30T07:03:30;97957.25;;;14.26;100.00
68169;BME280;54981;50.206;15.978;2023-08-30T07:06:00;97958.91;;;14.27;100.00
68169;BME280;54981;50.206;15.978;2023-08-30T07:08:31;97956.97;;;14.30;100.00
68169;BME280;54981;50.206;15.978;2023-08-30T07:11:02;97961.72;;;14.26;100.00
68169;BME280;54981;50.206;15.978;2023-08-30T07:13:33;97964.72;;;14.33;100.00
68169;BME280;54981;50.206;15.978;2023-08-30T07:16:03;97962.38;;;14.39;100.00
68169;BME280;54981;50.206;15.978;2023-08-30T07:18:34;97961.81;;;14.45;100.00
68169;BME280;54981;50.206;15.978;2023-08-30T07:21:04;97965.31;;;14.36;100.00
68169;BME280;54981;50.206;15.978;2023-08-30T07:23:34;97965.50;;;14.44;100.00
68169;BME280;54981;50.206;15.978;2023-08-30T07:26:05;97971.38;;;14.59;100.00
68169;BME280;54981;50.206;15.978;2023-08-30T07:28:35;97971.66;;;14.56;100.00
68169;BME280;54981;50.206;15.978;2023-08-30T07:31:05;97972.94;;;14.62;100.00
68169;BME280;54981;50.206;15.978;2023-08-30T07:33:36;97967.34;;;14.65;100.00
68169;BME280;54981;50.206;15.978;2023-08-30T07:36:07;97977.47;;;14.61;100.00
68169;BME280;54981;50.206;15.978;2023-08-30T07:38:38;97979.03;;;14.64;100.00
68169;BME280;54981;50.206;15.978;2023-08-30T07:41:09;97981.69;;;14.64;100.00
68169;BME280;54981;50.206;15.978;2023-08-30T07:43:40;97983.38;;;14.55;100.00
68169;BME280;54981;50.206;15.978;2023-08-30T07:46:10;97984.56;;;14.51;100.00
68169;BME280;54981;50.206;15.978;2023-08-30T07:48:40;97985.91;;;14.57;100.00
68169;BME280;54981;50.206;15.978;2023-08-30T07:51:11;97987.72;;;14.56;100.00
68169;BME280;54981;50.206;15.978;2023-08-30T07:53:41;97986.94;;;14.65;100.00
68169;BME280;54981;50.206;15.978;2023-08-30T07:56:11;97993.97;;;14.66;100.00
68169;BME280;54981;50.206;15.978;2023-08-30T07:58:42;97998.22;;;14.69;100.00
68169;BME280;54981;50.206;15.978;2023-08-30T08:01:16;97991.94;;;14.80;100.00
68169;BME280;54981;50.206;15.978;2023-08-30T08:03:46;97997.09;;;14.72;100.00
68169;BME280;54981;50.206;15.978;2023-08-30T08:06:17;97995.75;;;14.77;100.00
68169;BME280;54981;50.206;15.978;2023-08-30T08:08:47;97997.31;;;14.80;100.00
68169;BME280;54981;50.206;15.978;2023-08-30T08:11:18;97999.38;;;14.76;100.00
68169;BME280;54981;50.206;15.978;2023-08-30T08:13:48;97999.78;;;14.72;100.00
68169;BME280;54981;50.206;15.978;2023-08-30T08:16:18;98006.00;;;14.72;100.00
68169;BME280;54981;50.206;15.978;2023-08-30T08:18:50;98007.38;;;14.66;100.00
68169;BME280;54981;50.206;15.978;2023-08-30T08:21:22;98009.09;;;14.67;100.00
68169;BME280;54981;50.206;15.978;2023-08-30T08:23:52;98007.81;;;14.72;100.00
68169;BME280;54981;50.206;15.978;2023-08-30T08:26:23;98006.84;;;14.73;100.00
68169;BME280;54981;50.206;15.978;2023-08-30T08:28:54;98012.47;;;14.69;100.00
68169;BME280;54981;50.206;15.978;2023-08-30T08:31:25;98011.66;;;14.79;100.00
68169;BME280;54981;50.206;15.978;2023-08-30T08:34:09;98015.06;;;14.81;100.00
68169;BME280;54981;50.206;15.978;2023-08-30T08:36:42;98010.75;;;14.89;100.00
68169;BME280;54981;50.206;15.978;2023-08-30T08:39:12;98017.66;;;14.92;100.00
68169;BME280;54981;50.206;15.978;2023-08-30T08:41:45;98014.31;;;15.00;100.00
68169;BME280;54981;50.206;15.978;2023-08-30T08:44:15;98015.94;;;14.91;100.00
68169;BME280;54981;50.206;15.978;2023-08-30T08:46:48;98017.63;;;14.82;100.00
68169;BME280;54981;50.206;15.978;2023-08-30T08:49:19;98015.75;;;14.73;100.00
68169;BME280;54981;50.206;15.978;2023-08-30T08:51:50;98019.81;;;14.67;100.00
68169;BME280;54981;50.206;15.978;2023-08-30T08:54:20;98022.66;;;14.76;100.00
68169;BME280;54981;50.206;15.978;2023-08-30T08:56:51;98023.38;;;14.78;100.00
68169;BME280;54981;50.206;15.978;2023-08-30T08:59:23;98026.91;;;14.78;100.00
68169;BME280;54981;50.206;15.978;2023-08-30T09:01:54;98026.34;;;14.75;100.00
68169;BME280;54981;50.206;15.978;2023-08-30T09:04:24;98028.78;;;14.87;100.00
68169;BME280;54981;50.206;15.978;2023-08-30T09:06:55;98024.53;;;14.85;100.00
68169;BME280;54981;50.206;15.978;2023-08-30T09:09:26;98019.78;;;14.98;100.00
68169;BME280;54981;50.206;15.978;2023-08-30T09:11:56;98019.38;;;15.03;100.00
68169;BME280;54981;50.206;15.978;2023-08-30T09:14:27;98017.13;;;15.08;100.00
68169;BME280;54981;50.206;15.978;2023-08-30T09:16:58;98020.44;;;15.21;100.00
68169;BME280;54981;50.206;15.978;2023-08-30T09:19:30;98023.03;;;15.32;100.00
68169;BME280;54981;50.206;15.978;2023-08-30T09:22:01;98028.00;;;15.37;100.00
68169;BME280;54981;50.206;15.978;2023-08-30T09:24:41;98016.69;;;15.43;100.00
68169;BME280;54981;50.206;15.978;2023-08-30T09:27:11;98021.09;;;15.44;100.00
68169;BME280;54981;50.206;15.978;2023-08-30T09:29:42;98025.31;;;15.37;100.00
68169;BME280;54981;50.206;15.978;2023-08-30T09:32:20;98021.91;;;15.35;100.00
68169;BME280;54981;50.206;15.978;2023-08-30T09:34:51;98025.59;;;15.53;100.00
68169;BME280;54981;50.206;15.978;2023-08-30T09:37:24;98021.66;;;15.58;100.00
68169;BME280;54981;50.206;15.978;2023-08-30T09:39:56;98019.38;;;15.43;100.00
68169;BME280;54981;50.206;15.978;2023-08-30T09:42:27;98021.78;;;15.46;100.00
68169;BME280;54981;50.206;15.978;2023-08-30T09:44:58;98021.09;;;15.54;100.00
68169;BME280;54981;50.206;15.978;2023-08-30T09:47:29;98014.88;;;15.53;100.00
68169;BME280;54981;50.206;15.978;2023-08-30T09:50:00;98015.16;;;15.50;100.00
68169;BME280;54981;50.206;15.978;2023-08-30T09:52:32;98019.28;;;15.64;100.00
68169;BME280;54981;50.206;15.978;2023-08-30T09:55:04;98031.75;;;15.75;100.00
68169;BME280;54981;50.206;15.978;2023-08-30T09:57:35;98023.03;;;15.83;100.00
68169;BME280;54981;50.206;15.978;2023-08-30T10:00:06;98011.41;;;16.02;100.00
68169;BME280;54981;50.206;15.978;2023-08-30T10:02:41;98014.78;;;16.23;100.00
68169;BME280;54981;50.206;15.978;2023-08-30T10:05:13;98007.03;;;16.20;100.00
68169;BME280;54981;50.206;15.978;2023-08-30T10:07:44;98011.97;;;16.15;100.00
68169;BME280;54981;50.206;15.978;2023-08-30T10:10:16;98011.97;;;16.15;100.00
68169;BME280;54981;50.206;15.978;2023-08-30T10:12:46;98013.00;;;16.14;100.00
68169;BME280;54981;50.206;15.978;2023-08-30T10:15:16;98010.31;;;16.14;100.00
68169;BME280;54981;50.206;15.978;2023-08-30T10:17:52;98009.59;;;16.12;100.00
68169;BME280;54981;50.206;15.978;2023-08-30T10:20:24;97997.00;;;16.12;100.00
68169;BME280;54981;50.206;15.978;2023-08-30T10:22:56;98000.66;;;16.11;100.00
68169;BME280;54981;50.206;15.978;2023-08-30T10:25:29;98006.50;;;16.07;100.00
68169;BME280;54981;50.206;15.978;2023-08-30T10:28:01;98001.25;;;15.95;100.00
68169;BME280;54981;50.206;15.978;2023-08-30T10:30:32;98003.66;;;16.08;100.00
68169;BME280;54981;50.206;15.978;2023-08-30T10:33:11;98009.31;;;16.15;100.00
68169;BME280;54981;50.206;15.978;2023-08-30T10:35:49;98008.03;;;16.19;100.00
68169;BME280;54981;50.206;15.978;2023-08-30T10:38:25;98006.31;;;16.18;100.00
68169;BME280;54981;50.206;15.978;2023-08-30T10:41:06;98009.72;;;16.20;100.00
68169;BME280;54981;50.206;15.978;2023-08-30T10:43:38;98008.03;;;16.29;100.00
68169;BME280;54981;50.206;15.978;2023-08-30T10:46:08;98007.03;;;16.20;100.00
68169;BME280;54981;50.206;15.978;2023-08-30T10:48:41;98013.13;;;16.12;100.00
68169;BME280;54981;50.206;15.978;2023-08-30T10:51:37;98008.59;;;16.03;100.00
68169;BME280;54981;50.206;15.978;2023-08-30T10:54:12;98016.66;;;15.93;100.00
68169;BME280;54981;50.206;15.978;2023-08-30T10:56:55;98023.28;;;15.89;100.00
68169;BME280;54981;50.206;15.978;2023-08-30T10:59:27;98024.41;;;15.96;100.00
68169;BME280;54981;50.206;15.978;2023-08-30T11:02:01;98017.91;;;15.89;100.00
68169;BME280;54981;50.206;15.978;2023-08-30T11:04:31;98023.69;;;15.85;100.00
68169;BME280;54981;50.206;15.978;2023-08-30T11:07:02;98016.78;;;15.92;100.00
68169;BME280;54981;50.206;15.978;2023-08-30T11:09:33;98020.75;;;15.97;100.00
68169;BME280;54981;50.206;15.978;2023-08-30T11:12:04;98016.53;;;16.05;100.00
68169;BME280;54981;50.206;15.978;2023-08-30T11:14:35;98014.81;;;16.04;100.00
68169;BME280;54981;50.206;15.978;2023-08-30T11:17:10;98013.97;;;16.13;100.00
68169;BME280;54981;50.206;15.978;2023-08-30T11:19:40;98017.91;;;16.09;100.00
68169;BME280;54981;50.206;15.978;2023-08-30T11:22:14;98019.63;;;16.00;100.00
68169;BME280;54981;50.206;15.978;2023-08-30T11:24:50;98013.13;;;16.12;100.00
68169;BME280;54981;50.206;15.978;2023-08-30T11:27:20;98012.09;;;16.23;100.00
68169;BME280;54981;50.206;15.978;2023-08-30T11:29:51;98009.84;;;16.18;100.00
68169;BME280;54981;50.206;15.978;2023-08-30T11:32:21;98011.44;;;16.21;100.00
68169;BME280;54981;50.206;15.978;2023-08-30T11:34:58;98006.06;;;16.21;100.00
68169;BME280;54981;50.206;15.978;2023-08-30T11:37:28;97999.56;;;16.14;100.00
68169;BME280;54981;50.206;15.978;2023-08-30T11:40:01;98003.38;;;16.21;100.00
68169;BME280;54981;50.206;15.978;2023-08-30T11:42:32;98001.25;;;16.15;100.00
68169;BME280;54981;50.206;15.978;2023-08-30T11:45:03;97999.81;;;16.21;100.00
68169;BME280;54981;50.206;15.978;2023-08-30T11:47:34;97999.25;;;16.27;100.00
68169;BME280;54981;50.206;15.978;2023-08-30T11:50:05;98003.19;;;16.32;100.00
68169;BME280;54981;50.206;15.978;2023-08-30T11:52:36;97996.97;;;16.42;100.00
68169;BME280;54981;50.206;15.978;2023-08-30T11:55:08;97998.06;;;16.49;100.00
68169;BME280;54981;50.206;15.978;2023-08-30T11:57:38;98003.41;;;16.68;100.00
68169;BME280;54981;50.206;15.978;2023-08-30T12:00:10;97991.69;;;16.69;100.00
68169;BME280;54981;50.206;15.978;2023-08-30T12:02:41;97987.41;;;16.76;100.00
68169;BME280;54981;50.206;15.978;2023-08-30T12:05:13;97994.09;;;16.63;100.00
68169;BME280;54981;50.206;15.978;2023-08-30T12:07:45;97995.28;;;16.40;100.00
68169;BME280;54981;50.206;15.978;2023-08-30T12:10:18;97998.41;;;16.36;100.00
68169;BME280;54981;50.206;15.978;2023-08-30T12:12:50;98006.31;;;16.28;100.00
68169;BME280;54981;50.206;15.978;2023-08-30T12:15:22;98006.06;;;16.21;100.00
68169;BME280;54981;50.206;15.978;2023-08-30T12:17:55;98004.06;;;16.13;100.00
68169;BME280;54981;50.206;15.978;2023-08-30T12:20:26;98007.75;;;16.12;100.00
68169;BME280;54981;50.206;15.978;2023-08-30T12:22:57;98008.03;;;16.09;100.00
68169;BME280;54981;50.206;15.978;2023-08-30T12:25:28;98008.59;;;16.13;100.00
68169;BME280;54981;50.206;15.978;2023-08-30T12:28:00;98011.69;;;15.98;100.00
68169;BME280;54981;50.206;15.978;2023-08-30T12:30:30;98014.38;;;16.18;100.00
68169;BME280;54981;50.206;15.978;2023-08-30T12:33:01;98008.03;;;16.29;100.00
68169;BME280;54981;50.206;15.978;2023-08-30T12:35:34;98011.94;;;16.44;100.00
68169;BME280;54981;50.206;15.978;2023-08-30T12:38:05;98011.81;;;16.36;100.00
68169;BME280;54981;50.206;15.978;2023-08-30T12:40:35;98016.19;;;16.47;100.00
68169;BME280;54981;50.206;15.978;2023-08-30T12:43:06;98015.63;;;16.43;100.00
68169;BME280;54981;50.206;15.978;2023-08-30T12:45:36;98007.41;;;16.45;100.00
68169;BME280;54981;50.206;15.978;2023-08-30T12:48:08;98015.31;;;16.56;100.00
68169;BME280;54981;50.206;15.978;2023-08-30T12:50:39;98011.59;;;16.67;100.00
68169;BME280;54981;50.206;15.978;2023-08-30T12:53:09;98005.38;;;16.66;100.00
68169;BME280;54981;50.206;15.978;2023-08-30T12:55:39;98022.50;;;16.85;100.00
68169;BME280;54981;50.206;15.978;2023-08-30T12:58:13;98009.34;;;16.81;100.00
68169;BME280;54981;50.206;15.978;2023-08-30T13:00:44;98019.22;;;16.71;100.00
68169;BME280;54981;50.206;15.978;2023-08-30T13:03:14;98018.13;;;16.64;100.00
68169;BME280;54981;50.206;15.978;2023-08-30T13:05:44;98014.31;;;16.57;100.00
68169;BME280;54981;50.206;15.978;2023-08-30T13:08:15;98009.53;;;16.51;100.00
68169;BME280;54981;50.206;15.978;2023-08-30T13:10:45;98004.00;;;16.43;100.00
68169;BME280;54981;50.206;15.978;2023-08-30T13:13:16;98010.69;;;16.38;100.00
68169;BME280;54981;50.206;15.978;2023-08-30T13:15:46;98011.84;;;16.26;100.00